createdAt,value
2017-09-21T00:01:56.609Z,24.53
2017-09-21T00:04:24.168Z,24.80
2017-09-21T00:06:51.852Z,22.70
2017-09-21T00:09:19.452Z,22.70
2017-09-21T00:11:47.152Z,25.77
2017-09-21T00:14:14.798Z,23.43
2017-09-21T00:16:42.391Z,23.23
2017-09-21T00:19:09.969Z,23.03
2017-09-21T00:21:37.945Z,24.90
2017-09-21T00:24:05.510Z,24.80
2017-09-21T00:26:33.093Z,25.60
2017-09-21T00:29:00.659Z,25.40
2017-09-21T00:31:28.358Z,26.00
2017-09-21T00:33:55.925Z,27.50
2017-09-21T00:36:23.553Z,23.83
2017-09-21T00:38:51.153Z,25.13
2017-09-21T00:41:18.759Z,24.13
2017-09-21T00:43:46.656Z,23.33
2017-09-21T00:46:14.266Z,25.10
2017-09-21T00:48:43.004Z,25.00
2017-09-21T00:51:10.584Z,23.20
2017-09-21T00:53:38.147Z,26.60
2017-09-21T00:56:05.725Z,23.57
2017-09-21T00:58:33.304Z,22.00
2017-09-21T01:01:00.955Z,28.80
2017-09-21T01:03:29.973Z,22.80
2017-09-21T01:05:57.819Z,24.80
2017-09-21T01:08:25.531Z,22.50
2017-09-21T01:10:53.175Z,26.00
2017-09-21T01:13:20.757Z,21.07
2017-09-21T01:15:48.314Z,26.90
2017-09-21T01:18:16.242Z,23.47
2017-09-21T01:20:43.821Z,19.57
2017-09-21T01:23:11.482Z,23.57
2017-09-21T01:25:39.026Z,21.10
2017-09-21T01:28:06.902Z,20.20
2017-09-21T01:30:34.456Z,23.53
2017-09-21T01:33:02.024Z,22.33
2017-09-21T01:35:29.614Z,21.10
2017-09-21T01:37:57.170Z,21.00
2017-09-21T01:40:24.774Z,20.20
2017-09-21T01:42:52.340Z,23.70
2017-09-21T01:45:19.940Z,21.07
2017-09-21T01:47:47.502Z,19.87
2017-09-21T01:50:15.413Z,22.00
2017-09-21T01:52:42.961Z,20.90
2017-09-21T01:55:10.514Z,19.37
2017-09-21T01:57:38.092Z,21.93
2017-09-21T02:00:05.775Z,20.60
2017-09-21T02:02:33.354Z,23.10
2017-09-21T02:05:00.917Z,20.37
2017-09-21T02:07:28.490Z,20.33
2017-09-21T02:09:56.064Z,19.50
2017-09-21T02:12:24.176Z,20.30
2017-09-21T02:14:51.735Z,20.20
2017-09-21T02:17:19.314Z,20.60
2017-09-21T02:19:47.077Z,21.57
2017-09-21T02:22:14.657Z,22.23
2017-09-21T02:24:42.276Z,21.83
2017-09-21T02:27:09.841Z,20.50
2017-09-21T02:29:38.016Z,20.97
2017-09-21T02:32:05.590Z,21.90
2017-09-21T02:34:33.444Z,21.80
2017-09-21T02:37:01.009Z,25.17
2017-09-21T02:39:28.605Z,21.57
2017-09-21T02:41:56.194Z,21.53
2017-09-21T02:44:23.775Z,22.00
2017-09-21T02:46:51.357Z,22.17
2017-09-21T02:49:18.910Z,20.30
2017-09-21T02:51:46.501Z,19.43
2017-09-21T02:54:14.270Z,17.80
2017-09-21T02:56:42.197Z,18.50
2017-09-21T02:59:09.756Z,17.93
2017-09-21T03:01:37.350Z,19.03
2017-09-21T03:04:06.400Z,17.53
2017-09-21T03:06:33.981Z,17.00
2017-09-21T03:09:01.559Z,18.63
2017-09-21T03:11:29.127Z,15.80
2017-09-21T03:13:56.715Z,16.67
2017-09-21T03:16:24.284Z,22.93
2017-09-21T03:18:52.179Z,18.27
2017-09-21T03:21:22.956Z,15.27
2017-09-21T03:23:51.799Z,13.37
2017-09-21T03:26:19.370Z,11.63
2017-09-21T03:28:47.071Z,11.10
2017-09-21T03:31:14.654Z,12.63
2017-09-21T03:33:42.212Z,27.77
2017-09-21T03:36:09.791Z,12.50
2017-09-21T03:38:37.397Z,18.03
2017-09-21T03:41:05.407Z,12.77
2017-09-21T03:43:32.975Z,15.13
2017-09-21T03:46:00.738Z,66.40
2017-09-21T03:48:28.293Z,30.07
2017-09-21T03:50:55.915Z,45.63
2017-09-21T03:53:23.519Z,67.50
2017-09-21T03:55:51.065Z,30.33
2017-09-21T03:58:18.669Z,11.00
2017-09-21T04:00:46.238Z,11.20
2017-09-21T04:03:14.678Z,13.90
2017-09-21T04:05:43.852Z,11.17
2017-09-21T04:08:11.391Z,23.17
2017-09-21T04:10:39.349Z,13.10
2017-09-21T04:13:06.922Z,12.67
2017-09-21T04:15:34.508Z,17.63
2017-09-21T04:18:02.052Z,15.10
2017-09-21T04:20:29.616Z,20.07
2017-09-21T04:22:57.177Z,17.17
2017-09-21T04:25:24.772Z,20.37
2017-09-21T04:27:52.345Z,18.60
2017-09-21T04:30:20.339Z,20.10
2017-09-21T04:32:47.919Z,25.60
2017-09-21T04:35:15.493Z,31.30
2017-09-21T04:37:43.757Z,28.77
2017-09-21T04:40:11.350Z,25.80
2017-09-21T04:42:39.092Z,31.00
2017-09-21T04:45:06.751Z,28.17
2017-09-21T04:47:35.274Z,22.13
2017-09-21T04:50:02.813Z,24.30
2017-09-21T04:52:30.817Z,19.50
2017-09-21T04:54:58.387Z,17.30
2017-09-21T04:57:25.955Z,23.87
2017-09-21T04:59:53.551Z,20.07
2017-09-21T05:02:21.116Z,20.60
2017-09-21T05:04:48.689Z,33.27
2017-09-21T05:07:16.284Z,26.33
2017-09-21T05:09:43.864Z,25.60
2017-09-21T05:12:11.428Z,22.93
2017-09-21T05:14:39.085Z,23.20
2017-09-21T05:17:06.649Z,24.93
2017-09-21T05:19:35.412Z,27.57
2017-09-21T05:22:02.993Z,31.53
2017-09-21T05:24:30.551Z,20.37
2017-09-21T05:26:58.676Z,19.33
2017-09-21T05:29:26.251Z,18.67
2017-09-21T05:31:53.832Z,16.50
2017-09-21T05:34:21.396Z,35.20
2017-09-21T05:36:49.076Z,17.23
2017-09-21T05:39:16.641Z,22.40
2017-09-21T05:44:18.046Z,38.83
2017-09-21T05:46:45.944Z,16.27
2017-09-21T05:49:13.510Z,24.33
2017-09-21T05:51:41.067Z,15.50
2017-09-21T05:54:08.642Z,23.27
2017-09-21T05:56:36.229Z,15.17
2017-09-21T05:59:03.794Z,23.53
2017-09-21T06:01:31.358Z,13.90
2017-09-21T06:03:59.275Z,24.77
2017-09-21T06:06:26.841Z,27.23
2017-09-21T06:08:54.446Z,31.20
2017-09-21T06:11:22.058Z,28.97
2017-09-21T06:13:49.628Z,67.97
2017-09-21T06:16:17.224Z,57.13
2017-09-21T06:18:44.824Z,16.90
2017-09-21T06:21:12.432Z,12.47
2017-09-21T06:23:41.012Z,15.87
2017-09-21T06:26:08.537Z,40.13
2017-09-21T06:28:36.079Z,21.00
2017-09-21T06:31:04.090Z,16.47
2017-09-21T06:33:31.666Z,24.00
2017-09-21T06:35:59.233Z,33.33
2017-09-21T06:38:26.828Z,15.57
2017-09-21T06:40:54.368Z,30.80
2017-09-21T06:43:22.044Z,19.23
2017-09-21T06:45:49.650Z,35.40
2017-09-21T06:48:17.326Z,28.43
2017-09-21T06:50:44.900Z,25.60
2017-09-21T06:53:12.485Z,16.60
2017-09-21T06:55:40.032Z,21.57
2017-09-21T06:58:07.592Z,17.47
2017-09-21T07:00:36.121Z,18.20
2017-09-21T07:03:03.665Z,11.43
2017-09-21T07:05:31.246Z,11.97
2017-09-21T07:07:58.805Z,23.03
2017-09-21T07:10:26.399Z,11.40
2017-09-21T07:12:54.565Z,14.23
2017-09-21T07:15:22.600Z,14.17
2017-09-21T07:17:50.751Z,18.80
2017-09-21T07:20:18.309Z,13.30
2017-09-21T07:22:45.878Z,13.57
2017-09-21T07:25:13.610Z,15.80
2017-09-21T07:27:41.219Z,12.67
2017-09-21T07:30:08.791Z,17.40
2017-09-21T07:32:36.397Z,16.30
2017-09-21T07:35:03.982Z,19.77
2017-09-21T07:37:31.857Z,19.07
2017-09-21T07:39:59.429Z,16.27
2017-09-21T07:42:27.301Z,18.43
2017-09-21T07:44:54.867Z,16.60
2017-09-21T07:47:22.442Z,21.33
2017-09-21T07:49:50.017Z,20.97
2017-09-21T07:52:17.598Z,25.40
2017-09-21T07:54:45.180Z,24.17
2017-09-21T07:57:12.745Z,30.23
2017-09-21T07:59:40.724Z,29.00
2017-09-21T08:02:08.363Z,27.43
2017-09-21T08:04:35.936Z,28.50
2017-09-21T08:07:03.539Z,30.97
2017-09-21T08:09:31.101Z,28.70
2017-09-21T08:11:58.686Z,32.80
2017-09-21T08:14:26.299Z,31.17
2017-09-21T08:16:54.246Z,33.37
2017-09-21T08:19:21.963Z,29.27
2017-09-21T08:21:49.532Z,31.50
2017-09-21T08:24:17.125Z,29.70
2017-09-21T08:26:44.689Z,29.50
2017-09-21T08:29:12.277Z,31.43
2017-09-21T08:31:39.867Z,26.17
2017-09-21T08:34:07.494Z,32.30
2017-09-21T08:36:35.194Z,23.70
2017-09-21T08:39:03.065Z,25.70
2017-09-21T08:41:30.625Z,29.50
2017-09-21T08:43:58.186Z,32.17
2017-09-21T08:46:25.759Z,33.20
2017-09-21T08:48:53.321Z,27.60
2017-09-21T08:51:20.927Z,23.10
2017-09-21T08:53:48.487Z,21.87
2017-09-21T08:56:16.093Z,19.87
2017-09-21T08:58:43.673Z,23.13
2017-09-21T09:01:11.343Z,18.70
2017-09-21T09:03:38.884Z,26.00
2017-09-21T09:06:06.788Z,22.57
2017-09-21T09:08:34.349Z,23.30
2017-09-21T09:11:01.913Z,16.73
2017-09-21T09:13:29.524Z,19.13
2017-09-21T09:15:57.092Z,21.80
2017-09-21T09:18:24.893Z,17.93
2017-09-21T09:20:52.435Z,29.30
2017-09-21T09:23:20.026Z,17.43
2017-09-21T09:25:47.644Z,24.53
2017-09-21T09:28:15.639Z,22.90
2017-09-21T09:30:43.338Z,20.43
2017-09-21T09:33:10.956Z,18.37
2017-09-21T09:35:38.546Z,20.87
2017-09-21T09:38:06.147Z,19.30
2017-09-21T09:40:33.715Z,20.43
2017-09-21T09:43:01.292Z,20.80
2017-09-21T09:45:28.880Z,20.03
2017-09-21T09:47:56.479Z,18.73
2017-09-21T09:50:24.514Z,18.63
2017-09-21T09:52:52.135Z,17.17
2017-09-21T09:55:19.719Z,13.60
2017-09-21T09:57:47.308Z,16.10
2017-09-21T10:00:14.899Z,14.83
2017-09-21T10:02:42.512Z,13.80
2017-09-21T10:05:10.109Z,13.20
2017-09-21T10:07:37.747Z,17.10
2017-09-21T10:10:05.314Z,16.50
2017-09-21T10:12:32.926Z,17.27
2017-09-21T10:15:00.552Z,13.80
2017-09-21T10:17:28.489Z,18.40
2017-09-21T10:19:56.086Z,13.33
2017-09-21T10:22:23.650Z,13.40
2017-09-21T10:24:51.233Z,15.40
2017-09-21T10:27:18.787Z,17.67
2017-09-21T10:29:46.393Z,13.20
2017-09-21T10:32:13.972Z,16.17
2017-09-21T10:34:41.545Z,15.20
2017-09-21T10:37:09.104Z,13.10
2017-09-21T10:39:37.048Z,12.97
2017-09-21T10:42:04.636Z,12.27
2017-09-21T10:44:32.221Z,12.00
2017-09-21T10:46:59.882Z,13.73
2017-09-21T10:49:27.449Z,13.73
2017-09-21T10:51:55.729Z,14.20
2017-09-21T10:54:23.288Z,13.20
2017-09-21T10:56:50.882Z,12.30
2017-09-21T10:59:18.454Z,13.57
2017-09-21T11:01:46.411Z,11.37
2017-09-21T11:04:13.971Z,15.43
2017-09-21T11:06:41.561Z,10.17
2017-09-21T11:09:09.173Z,9.87
2017-09-21T11:11:36.735Z,8.67
2017-09-21T11:14:04.318Z,9.77
2017-09-21T11:16:31.900Z,10.87
2017-09-21T11:18:59.455Z,10.30
2017-09-21T11:21:28.192Z,10.10
2017-09-21T11:23:56.516Z,8.30
2017-09-21T11:26:24.189Z,8.63
2017-09-21T11:28:51.767Z,9.83
2017-09-21T11:31:19.368Z,10.23
2017-09-21T11:33:46.938Z,14.13
2017-09-21T11:36:15.643Z,14.80
2017-09-21T11:38:43.233Z,12.80
2017-09-21T11:41:10.821Z,11.20
2017-09-21T11:43:39.507Z,11.97
2017-09-21T11:46:07.166Z,11.07
2017-09-21T11:48:34.764Z,14.83
2017-09-21T11:51:02.635Z,12.23
2017-09-21T11:53:30.217Z,10.87
2017-09-21T11:55:57.791Z,13.17
2017-09-21T11:58:25.410Z,10.67
2017-09-21T12:00:52.985Z,10.20
2017-09-21T12:03:20.589Z,10.07
2017-09-21T12:05:49.027Z,9.50
2017-09-21T12:08:16.635Z,9.63
2017-09-21T12:10:44.213Z,11.00
2017-09-21T12:13:11.821Z,9.43
2017-09-21T12:15:39.421Z,10.50
2017-09-21T12:18:07.024Z,9.23
2017-09-21T12:20:34.626Z,9.80
2017-09-21T12:23:02.188Z,10.20
2017-09-21T12:25:30.912Z,8.90
2017-09-21T12:27:58.450Z,9.20
2017-09-21T12:30:26.069Z,11.07
2017-09-21T12:32:53.647Z,10.67
2017-09-21T12:35:21.218Z,8.37
2017-09-21T12:37:48.776Z,7.67
2017-09-21T12:40:16.687Z,8.77
2017-09-21T12:42:44.247Z,9.27
2017-09-21T12:45:12.542Z,8.30
2017-09-21T12:47:40.134Z,7.90
2017-09-21T12:50:07.688Z,9.93
2017-09-21T12:52:35.784Z,8.70
2017-09-21T12:55:03.345Z,10.85
2017-09-21T12:57:33.764Z,10.20
2017-09-21T13:00:01.341Z,11.03
2017-09-21T13:02:28.916Z,9.93
2017-09-21T13:04:56.582Z,10.50
2017-09-21T13:07:24.121Z,10.90
2017-09-21T13:09:51.691Z,13.67
2017-09-21T13:12:19.418Z,14.10
2017-09-21T13:14:47.018Z,16.10
2017-09-21T13:17:14.571Z,14.50
2017-09-21T13:19:42.663Z,18.70
2017-09-21T13:22:10.241Z,15.53
2017-09-21T13:24:39.130Z,15.67
2017-09-21T13:27:07.778Z,16.67
2017-09-21T13:29:35.369Z,14.67
2017-09-21T13:32:02.969Z,14.60
2017-09-21T13:34:30.544Z,15.07
2017-09-21T13:36:58.120Z,14.73
2017-09-21T13:39:25.834Z,13.87
2017-09-21T13:41:53.676Z,17.57
2017-09-21T13:44:21.568Z,13.43
2017-09-21T13:46:49.145Z,13.00
2017-09-21T13:49:16.746Z,11.70
2017-09-21T13:51:44.337Z,10.60
2017-09-21T13:54:11.952Z,11.93
2017-09-21T13:56:39.679Z,12.50
2017-09-21T13:59:07.297Z,12.10
2017-09-21T14:01:34.871Z,14.27
2017-09-21T14:04:02.700Z,14.37
2017-09-21T14:06:30.268Z,13.40
2017-09-21T14:08:57.827Z,14.17
2017-09-21T14:11:25.415Z,13.73
2017-09-21T14:13:53.011Z,12.40
2017-09-21T14:16:20.597Z,12.60
2017-09-21T14:18:48.220Z,15.30
2017-09-21T14:21:15.800Z,12.57
2017-09-21T14:23:43.521Z,10.60
2017-09-21T14:26:11.120Z,12.00
2017-09-21T14:28:38.694Z,11.10
2017-09-21T14:31:06.638Z,9.50
2017-09-21T14:33:34.222Z,9.20
2017-09-21T14:36:01.794Z,9.47
2017-09-21T14:38:29.373Z,8.03
2017-09-21T14:40:56.933Z,8.67
2017-09-21T14:43:24.526Z,8.77
2017-09-21T14:45:52.063Z,7.10
2017-09-21T14:48:19.666Z,7.00
2017-09-21T14:50:47.244Z,8.97
2017-09-21T14:53:15.185Z,9.10
2017-09-21T14:55:42.734Z,13.83
2017-09-21T14:58:10.300Z,10.03
2017-09-21T15:00:37.885Z,12.27
2017-09-21T15:03:05.442Z,8.90
2017-09-21T15:05:33.013Z,7.57
2017-09-21T15:08:00.760Z,9.13
2017-09-21T15:10:28.330Z,12.20
2017-09-21T15:12:55.879Z,11.70
2017-09-21T15:15:23.849Z,12.07
2017-09-21T15:17:51.419Z,10.77
2017-09-21T15:20:19.010Z,12.03
2017-09-21T15:22:46.613Z,10.60
2017-09-21T15:25:14.159Z,9.37
2017-09-21T15:27:41.938Z,9.53
2017-09-21T15:30:09.717Z,10.23
2017-09-21T15:32:37.356Z,13.50
2017-09-21T15:35:05.036Z,14.07
2017-09-21T15:37:33.005Z,22.33
2017-09-21T15:40:00.594Z,18.23
2017-09-21T15:42:28.183Z,24.87
2017-09-21T15:44:55.816Z,19.37
2017-09-21T15:47:23.385Z,23.20
2017-09-21T15:49:51.138Z,24.17
2017-09-21T15:52:18.819Z,16.00
2017-09-21T15:54:46.759Z,12.47
2017-09-21T15:57:14.334Z,18.83
2017-09-21T15:59:41.903Z,19.50
2017-09-21T16:02:09.628Z,17.10
2017-09-21T16:04:37.210Z,16.50
2017-09-21T16:07:04.773Z,16.53
2017-09-21T16:09:32.316Z,15.53
2017-09-21T16:12:00.290Z,18.30
2017-09-21T16:14:27.893Z,12.00
2017-09-21T16:16:55.475Z,10.70
2017-09-21T16:19:23.417Z,14.80
2017-09-21T16:21:51.173Z,12.73
2017-09-21T16:24:18.774Z,12.10
2017-09-21T16:26:46.374Z,12.43
2017-09-21T16:29:14.963Z,13.93
2017-09-21T16:31:43.930Z,13.37
2017-09-21T16:34:12.317Z,13.20
2017-09-21T16:36:40.379Z,11.00
2017-09-21T16:39:08.166Z,12.53
2017-09-21T16:41:36.301Z,13.30
2017-09-21T16:44:07.175Z,13.80
2017-09-21T16:46:34.838Z,13.13
2017-09-21T16:49:02.459Z,10.97
2017-09-21T16:51:30.075Z,12.33
2017-09-21T16:53:57.684Z,14.97
2017-09-21T16:56:25.696Z,12.23
2017-09-21T16:58:53.289Z,14.70
2017-09-21T17:01:20.904Z,13.07
2017-09-21T17:03:48.485Z,12.50
2017-09-21T17:06:16.021Z,12.50
2017-09-21T17:08:43.783Z,15.23
2017-09-21T17:11:11.345Z,16.10
2017-09-21T17:13:38.948Z,11.70
2017-09-21T17:16:06.522Z,13.27
2017-09-21T17:18:34.522Z,15.60
2017-09-21T17:21:02.117Z,12.40
2017-09-21T17:23:29.702Z,12.80
2017-09-21T17:25:57.325Z,16.33
2017-09-21T17:28:24.905Z,11.57
2017-09-21T17:30:52.480Z,12.23
2017-09-21T17:33:20.063Z,14.70
2017-09-21T17:35:47.664Z,14.80
2017-09-21T17:38:15.241Z,16.40
2017-09-21T17:40:44.123Z,21.97
2017-09-21T17:43:11.692Z,20.27
2017-09-21T17:45:39.219Z,25.93
2017-09-21T17:48:06.788Z,22.47
2017-09-21T17:50:34.348Z,23.53
2017-09-21T17:53:01.961Z,20.90
2017-09-21T17:55:29.521Z,26.20
2017-09-21T17:57:57.138Z,26.37
2017-09-21T18:00:24.734Z,23.53
2017-09-21T18:02:52.327Z,20.10
2017-09-21T18:05:19.960Z,15.93
2017-09-21T18:07:47.533Z,18.00
2017-09-21T18:10:15.121Z,15.97
2017-09-21T18:12:42.756Z,16.97
2017-09-21T18:15:10.379Z,15.70
2017-09-21T18:17:38.008Z,17.35
2017-09-21T18:20:06.000Z,15.23
2017-09-21T18:22:34.384Z,20.20
2017-09-21T18:25:01.953Z,19.50
2017-09-21T18:27:31.270Z,18.93
2017-09-21T18:29:58.859Z,19.57
2017-09-21T18:32:26.472Z,19.37
2017-09-21T18:34:54.062Z,15.77
2017-09-21T18:37:21.660Z,19.07
2017-09-21T18:39:49.280Z,21.20
2017-09-21T18:42:17.977Z,19.60
2017-09-21T18:44:45.696Z,20.20
2017-09-21T18:47:13.767Z,18.50
2017-09-21T18:49:41.368Z,20.00
2017-09-21T18:52:09.020Z,21.50
2017-09-21T18:54:36.642Z,18.37
2017-09-21T18:57:04.272Z,18.40
2017-09-21T18:59:31.904Z,23.70
2017-09-21T19:02:00.149Z,19.77
2017-09-21T19:04:27.772Z,18.00
2017-09-21T19:06:55.444Z,18.27
2017-09-21T19:09:24.167Z,27.43
2017-09-21T19:11:51.759Z,24.80
2017-09-21T19:14:19.361Z,23.77
2017-09-21T19:16:46.955Z,21.30
2017-09-21T19:19:14.911Z,23.40
2017-09-21T19:21:42.759Z,21.10
2017-09-21T19:24:10.949Z,27.00
2017-09-21T19:26:38.576Z,21.20
2017-09-21T19:29:06.275Z,19.83
2017-09-21T19:31:34.165Z,20.83
2017-09-21T19:34:01.938Z,20.70
2017-09-21T19:36:29.717Z,16.50
2017-09-21T19:38:57.344Z,21.57
2017-09-21T19:41:24.981Z,29.00
2017-09-21T19:43:52.594Z,23.47
2017-09-21T19:46:20.542Z,22.10
2017-09-21T19:48:48.314Z,22.53
2017-09-21T19:51:15.898Z,15.57
2017-09-21T19:53:43.491Z,18.00
2017-09-21T19:56:11.074Z,20.87
2017-09-21T19:58:39.052Z,16.57
2017-09-21T20:01:06.617Z,18.30
2017-09-21T20:03:34.208Z,22.93
2017-09-21T20:06:03.358Z,21.13
2017-09-21T20:08:31.055Z,17.60
2017-09-21T20:10:58.785Z,17.97
2017-09-21T20:13:26.366Z,17.47
2017-09-21T20:15:54.269Z,14.90
2017-09-21T20:18:21.832Z,18.33
2017-09-21T20:20:49.783Z,20.57
2017-09-21T20:23:17.763Z,18.27
2017-09-21T20:25:45.356Z,14.77
2017-09-21T20:28:12.951Z,16.57
2017-09-21T20:30:40.919Z,17.50
2017-09-21T20:33:09.646Z,16.77
2017-09-21T20:35:37.352Z,15.30
2017-09-21T20:38:05.706Z,15.60
2017-09-21T20:40:33.340Z,17.23
2017-09-21T20:43:00.922Z,16.00
2017-09-21T20:45:28.651Z,14.83
2017-09-21T20:47:56.740Z,14.17
2017-09-21T20:50:24.321Z,14.33
2017-09-21T20:52:51.886Z,13.23
2017-09-21T20:55:19.812Z,16.40
2017-09-21T20:57:47.389Z,17.00
2017-09-21T21:00:15.550Z,18.83
2017-09-21T21:02:43.491Z,17.17
2017-09-21T21:05:11.053Z,17.07
2017-09-21T21:07:38.614Z,14.83
2017-09-21T21:10:06.582Z,17.00
2017-09-21T21:12:34.162Z,20.13
2017-09-21T21:15:01.741Z,15.13
2017-09-21T21:17:29.305Z,15.20
2017-09-21T21:19:56.882Z,14.10
2017-09-21T21:22:24.776Z,14.53
2017-09-21T21:24:52.359Z,14.70
2017-09-21T21:27:19.942Z,17.23
2017-09-21T21:29:47.880Z,15.43
2017-09-21T21:32:15.457Z,12.80
2017-09-21T21:34:43.023Z,13.70
2017-09-21T21:37:10.871Z,16.07
2017-09-21T21:39:38.437Z,15.60
2017-09-21T21:42:05.997Z,16.00
2017-09-21T21:44:33.582Z,15.63
2017-09-21T21:47:01.172Z,15.57
2017-09-21T21:49:28.773Z,16.30
2017-09-21T21:51:56.398Z,15.83
2017-09-21T21:54:24.275Z,18.87
2017-09-21T21:56:51.855Z,14.47
2017-09-21T21:59:19.418Z,13.80
2017-09-21T22:01:47.185Z,15.20
2017-09-21T22:04:14.749Z,15.30
2017-09-21T22:06:42.678Z,17.60
2017-09-21T22:09:10.258Z,14.43
2017-09-21T22:11:37.818Z,16.90
2017-09-21T22:14:05.699Z,14.77
2017-09-21T22:16:33.262Z,12.93
2017-09-21T22:19:00.845Z,11.40
2017-09-21T22:21:28.697Z,15.90
2017-09-21T22:23:56.269Z,14.47
2017-09-21T22:26:23.846Z,13.73
2017-09-21T22:28:51.703Z,15.10
2017-09-21T22:31:19.289Z,13.93
2017-09-21T22:33:46.846Z,17.60
2017-09-21T22:36:14.444Z,16.47
2017-09-21T22:38:42.049Z,15.73
2017-09-21T22:41:09.911Z,16.60
2017-09-21T22:43:37.470Z,17.13
2017-09-21T22:46:05.231Z,15.60
2017-09-21T22:48:32.814Z,17.10
2017-09-21T22:51:00.401Z,14.63
2017-09-21T22:53:28.354Z,21.00
2017-09-21T22:55:55.911Z,14.17
2017-09-21T22:58:23.465Z,16.07
2017-09-21T23:00:51.355Z,15.60
2017-09-21T23:03:18.931Z,15.83
2017-09-21T23:05:46.509Z,17.10
2017-09-21T23:08:14.088Z,17.10
2017-09-21T23:10:41.648Z,14.70
2017-09-21T23:13:10.965Z,14.83
2017-09-21T23:15:38.700Z,18.30
2017-09-21T23:18:06.271Z,14.40
2017-09-21T23:20:34.135Z,13.93
2017-09-21T23:23:01.711Z,12.23
2017-09-21T23:25:29.435Z,15.90
2017-09-21T23:27:57.298Z,12.27
2017-09-21T23:30:24.858Z,13.07
2017-09-21T23:32:52.424Z,15.60
2017-09-21T23:35:20.001Z,16.50
2017-09-21T23:37:47.571Z,13.40
2017-09-21T23:40:15.467Z,13.93
2017-09-21T23:42:43.007Z,14.43
2017-09-21T23:45:10.574Z,16.80
2017-09-21T23:47:38.505Z,13.23
2017-09-21T23:50:06.071Z,14.10
2017-09-21T23:52:33.647Z,17.90
2017-09-21T23:55:01.583Z,14.80
2017-09-21T23:57:29.151Z,14.03
2017-09-21T23:59:56.709Z,14.70
